SSEC Globe Logo

Space Science and Engineering Center

Surface Aviation Observations

KAIG 211715Z AUTO 26007KT 10SM CLR M06/M11 A3001 RMK AO2
     T10621110=
KAIG 211715Z AUTO 26007KT 10SM CLR M06/M11 A3001 RMK AO2
     T10621110=
KAIG 211655Z AUTO 27008KT 10SM CLR M07/M11 A3001 RMK AO2
     T10681112=
KAIG 211655Z AUTO 27008KT 10SM CLR M07/M11 A3001 RMK AO2
     T10681112=
KC29 211715Z AUTO 28006KT 10SM CLR M03/M10 A3015 RMK AO1
     T10281101=
KC29 211715Z AUTO 28006KT 10SM CLR M03/M10 A3015 RMK AO1
     T10281101=
KC29 211655Z AUTO 28010KT 10SM CLR M03/M10 A3015 RMK AO1
     T10331104=
KC29 211655Z AUTO 28010KT 10SM CLR M03/M10 A3015 RMK AO1
     T10331104=
KBCK 211715Z AUTO 27005KT 10SM BKN018 M05/M12 A3013 RMK AO2
     T10551122=
KBCK 211715Z AUTO 27005KT 10SM BKN018 M05/M12 A3013 RMK AO2
     T10551122=
KBCK 211655Z AUTO 28007KT 10SM OVC018 M06/M12 A3013 RMK AO2
     T10611125=
KBCK 211655Z AUTO 28007KT 10SM OVC018 M06/M12 A3013 RMK AO2
     T10611125=
KUBE 211715Z AUTO 23007KT 4SM -SN OVC020 M08/M11 A3008 RMK
     AO2=
KUBE 211715Z AUTO 23007KT 4SM -SN OVC020 M08/M11 A3008 RMK
     AO2=
KUBE 211655Z AUTO 23007KT 4SM -SN OVC018 M08/M12 A3007 RMK
     AO2=
KUBE 211655Z AUTO 23007KT 4SM -SN OVC018 M08/M12 A3007 RMK
     AO2=
KPVB 211715Z AUTO 23006KT 10SM CLR M05/M10 A3018 RMK AO1
     T10521096=
KPVB 211715Z AUTO 23006KT 10SM CLR M05/M10 A3018 RMK AO1
     T10521096=
KPVB 211655Z AUTO 27009KT 10SM CLR M06/M10 A3018 RMK AO1
     T10561101=
KPVB 211655Z AUTO 27009KT 10SM CLR M06/M10 A3018 RMK AO1
     T10561101=
KEZS 211735Z AUTO 27008KT 10SM CLR 00/M09 A3007 RMK AO2
     T10051094=
KEZS 211715Z AUTO 26010KT 10SM CLR M01/M09 A3006 RMK AO2
     T10071092=
KEZS 211715Z AUTO 26010KT 10SM CLR M01/M09 A3006 RMK AO2
     T10071092=
KEZS 211655Z AUTO 25009KT 10SM CLR M01/M09 A3005 RMK AO2
     T10111091=
KEZS 211655Z AUTO 25009KT 10SM CLR M01/M09 A3005 RMK AO2
     T10111091=
KARV 211715Z AUTO 26008KT 5SM -SN OVC015 M05/M08 A2999 RMK
     AO2 T10551081=
KARV 211715Z AUTO 26008KT 5SM -SN OVC015 M05/M08 A2999 RMK
     AO2 T10551081=
KARV 211655Z AUTO 26011G14KT 4SM -SN OVC015 M06/M08 A2998
     RMK AO2 T10561082=
KARV 211655Z AUTO 26011G14KT 4SM -SN OVC015 M06/M08 A2998
     RMK AO2 T10561082=
KASX 211653Z AUTO 24010KT 10SM BKN020 OVC046 M03/M07 A3003
     RMK AO2 SLP184 T10331072=
KASX 211653Z AUTO 24010KT 10SM BKN020 OVC046 M03/M07 A3003
     RMK AO2 SLP184 T10331072=
KATW 211645Z 25010KT 10SM SKC M06/M13 A3006=
KATW 211645Z 25010KT 10SM SKC M06/M13 A3006=
KAUW 211654Z AUTO 28012KT 8SM CLR M08/M13 A3004 RMK AO2
     SLP196 T10831128=
KAUW 211654Z AUTO 28012KT 8SM CLR M08/M13 A3004 RMK AO2
     SLP196 T10831128=
KBUU 211715Z AUTO 25009G14KT 10SM CLR M04/M10 A3016 RMK AO2
     T10441099=
KBUU 211715Z AUTO 25009G14KT 10SM CLR M04/M10 A3016 RMK AO2
     T10441099=
KBUU 211655Z AUTO 25010KT 10SM CLR M04/M10 A3016 RMK AO2
     T10451096=
KBUU 211655Z AUTO 25010KT 10SM CLR M04/M10 A3016 RMK AO2
     T10451096=
KCLI 211735Z AUTO 27007KT 10SM CLR M04/M11 A3008 RMK AO2
     T10441112=
KCLI 211715Z AUTO 27007KT 10SM CLR M05/M11 A3007 RMK AO2
     T10481114=
KCLI 211715Z AUTO 27007KT 10SM CLR M05/M11 A3007 RMK AO2
     T10481114=
KCLI 211655Z AUTO 28009KT 10SM CLR M05/M11 A3006 RMK AO2
     T10541115=
KCLI 211655Z AUTO 28009KT 10SM CLR M05/M11 A3006 RMK AO2
     T10541115=
KCMY 211715Z AUTO 00000KT 10SM CLR M06/M12 A3015 RMK AO2
     T10651120=
KCMY 211715Z AUTO 00000KT 10SM CLR M06/M12 A3015 RMK AO2
     T10651120=
KCMY 211655Z AUTO 00000KT 10SM CLR M07/M12 A3015 RMK AO2
     T10701123=
KCMY 211655Z AUTO 00000KT 10SM CLR M07/M12 A3015 RMK AO2
     T10701123=
KCWA 211649Z 25008KT 10SM SKC M08/M12 A3006=
KCWA 211649Z 25008KT 10SM SKC M08/M12 A3006=
KDLL 211715Z AUTO 27008KT 10SM CLR M05/M12 A3012 RMK AO2
     T10521120=
KDLL 211715Z AUTO 27008KT 10SM CLR M05/M12 A3012 RMK AO2
     T10521120=
KDLL 211655Z AUTO 28008G14KT 10SM CLR M06/M12 A3011 RMK AO2
     T10581122=
KDLL 211655Z AUTO 28008G14KT 10SM CLR M06/M12 A3011 RMK AO2
     T10581122=
KEAU 211656Z 24010KT 6SM HZ FEW023 BKN030 M09/M12 A3011 RMK
     AO2 SLP213 T10891122=
KEAU 211656Z 24010KT 6SM HZ FEW023 BKN030 M09/M12 A3011 RMK
     AO2 SLP213 T10891122=
KEAU 211651Z 24008KT 6SM HZ SCT021 BKN030 M09/M12 A3011 RMK
     AO2=
KEFT 211715Z AUTO 10SM CLR M05/M11 A3016 RMK AO2 T10471107=
KEFT 211715Z AUTO 10SM CLR M05/M11 A3016 RMK AO2 T10471107=
KEFT 211655Z AUTO 10SM CLR M05/M11 A3015 RMK AO2 T10501107=
KEGV 211735Z AUTO 25012KT 5SM -SN OVC015 M05/M09 A2998 RMK
     AO2 T10521089=
KEGV 211715Z AUTO 26008KT 7SM -SN OVC015 M05/M09 A2996 RMK
     AO2 T10511087=
KEGV 211715Z AUTO 26008KT 7SM -SN OVC015 M05/M09 A2996 RMK
     AO2 T10511087=
KEGV 211655Z AUTO 28007KT 7SM OVC017 M05/M09 A2995 RMK AO2
     T10501086=
KEGV 211655Z AUTO 28007KT 7SM OVC017 M05/M09 A2995 RMK AO2
     T10501086=
KENW 211653Z 27014G20KT 10SM CLR M02/M09 A3016 RMK AO2
     SLP221 T10221089 $=
KETB 211715Z AUTO 26010KT 10SM CLR M04/M11 A3011 RMK AO2=
KETB 211715Z AUTO 26010KT 10SM CLR M04/M11 A3011 RMK AO2=
KETB 211655Z AUTO 27010G16KT 10SM CLR M05/M10 A3011 RMK AO2=
KETB 211655Z AUTO 27010G16KT 10SM CLR M05/M10 A3011 RMK AO2=
KFLD 211653Z AUTO 27009KT 10SM CLR M06/M12 A3009 RMK AO2
     SLP203 T10611117=
KFLD 211653Z AUTO 27009KT 10SM CLR M06/M12 A3009 RMK AO2
     SLP203 T10611117=
KGRB 211653Z 26012KT 10SM CLR M04/M11 A3007 RMK AO2 SLP194
     T10441111=
KGRB 211653Z 26012KT 10SM CLR M04/M11 A3007 RMK AO2 SLP194
     T10441111=
KHYR 211702Z AUTO 24007KT 3SM BR BKN011 OVC021 M07/M09 A3005
     RMK AO2 T10671089=
KHYR 211653Z AUTO 27005KT 2 1/2SM BR BKN011 OVC021 M07/M09
     A3004 RMK AO2 SLP197 T10671089=
KHYR 211653Z AUTO 27005KT 2 1/2SM BR BKN011 OVC021 M07/M09
     A3004 RMK AO2 SLP197 T10671089=
KISW 211654Z AUTO 24008KT 10SM CLR M08/M14 A3010 RMK AO2
     SLP210 T10781139 TSNO=
KISW 211654Z AUTO 24008KT 10SM CLR M08/M14 A3010 RMK AO2
     SLP210 T10781139 TSNO=
KJVL 211645Z 26011KT 10SM SCT250 M03/M09 A3017=
KJVL 211645Z 26011KT 10SM SCT250 M03/M09 A3017=
KLNL 211715Z AUTO 28007KT 10SM -SN OVC017 M04/M07 A2998 RMK
     AO2 T10401075=
KLNL 211715Z AUTO 28007KT 10SM -SN OVC017 M04/M07 A2998 RMK
     AO2 T10401075=
KLNL 211655Z AUTO 29006KT 10SM -SN OVC015 M04/M07 A2996 RMK
     AO2 T10401075=
KLNL 211655Z AUTO 29006KT 10SM -SN OVC015 M04/M07 A2996 RMK
     AO2 T10401075=
KLNR 211656Z AUTO 26007KT 10SM CLR M06/M12 A3016 RMK AO2
     SLP219 T10561117=
KLNR 211656Z AUTO 26007KT 10SM CLR M06/M12 A3016 RMK AO2
     SLP219 T10561117=
KLSE 211653Z 00000KT 9SM CLR M07/M13 A3016 RMK AO2 SLP232
     T10671128=
KLSE 211653Z 00000KT 9SM CLR M07/M13 A3016 RMK AO2 SLP232
     T10671128=
KLUM 211715Z AUTO 21004KT 10SM OVC015 M09/M13 A3014 RMK AO2
     T10911133=
KLUM 211715Z AUTO 21004KT 10SM OVC015 M09/M13 A3014 RMK AO2
     T10911133=
KLUM 211655Z AUTO 24005KT 7SM -SN OVC013 M09/M14 A3012 RMK
     AO2 T10951136=
KLUM 211655Z AUTO 24005KT 7SM -SN OVC013 M09/M14 A3012 RMK
     AO2 T10951136=
KMDZ 211715Z AUTO 28007KT 4SM -SN BKN025 BKN033 M09/M12
     A3005 RMK AO2 T10881125 TSNO=
KMDZ 211715Z AUTO 28007KT 4SM -SN BKN025 BKN033 M09/M12
     A3005 RMK AO2 T10881125 TSNO=
KMDZ 211655Z AUTO 30007KT 4SM -SN SCT021 BKN027 BKN033
     M10/M13 A3004 RMK AO2 T10961131 TSNO=
KMDZ 211655Z AUTO 30007KT 4SM -SN SCT021 BKN027 BKN033
     M10/M13 A3004 RMK AO2 T10961131 TSNO=
KMFI 211654Z AUTO VRB06KT 7SM CLR M09/M13 A3007 RMK AO2
     SLP204 T10941128=
KMFI 211654Z AUTO VRB06KT 7SM CLR M09/M13 A3007 RMK AO2
     SLP204 T10941128=
KMKE 211652Z 27012G19KT 8SM FEW250 M02/M11 A3014 RMK AO2
     SLP216 T10221106=
KMKE 211652Z 27012G19KT 8SM FEW250 M02/M11 A3014 RMK AO2
     SLP216 T10221106=
KMRJ 211715Z AUTO 25008KT 10SM CLR M05/M10 A3016 RMK AO2=
KMRJ 211655Z AUTO 24007KT 10SM CLR M05/M10 A3015 RMK AO2=
KMRJ 211655Z AUTO 24007KT 10SM CLR M05/M10 A3015 RMK AO2=
KMSN 211653Z VRB05KT 10SM FEW250 M05/M12 A3014 RMK AO2
     SLP218 T10501117=
KMSN 211653Z VRB05KT 10SM FEW250 M05/M12 A3014 RMK AO2
     SLP218 T10501117=
KMTW 211656Z AUTO 26015G21KT 10SM CLR M04/M10 A3008 RMK AO2
     SLP211 T10441100 FZRANO=
KMTW 211656Z AUTO 26015G21KT 10SM CLR M04/M10 A3008 RMK AO2
     SLP211 T10441100 FZRANO=
KMWC 211645Z 26015KT 10SM SKC M03/M12 A3014=
KMWC 211645Z 26015KT 10SM SKC M03/M12 A3014=
KOEO 211715Z AUTO 25006KT 7SM OVC012 M08/M10 A3016 RMK AO2
     T10781105=
KOEO 211715Z AUTO 25006KT 7SM OVC012 M08/M10 A3016 RMK AO2
     T10781105=
KOEO 211655Z AUTO 25007KT 7SM OVC012 M08/M11 A3015 RMK AO2
     T10821107=
KOEO 211655Z AUTO 25007KT 7SM OVC012 M08/M11 A3015 RMK AO2
     T10821107=
KOSH 211653Z 27008KT 8SM CLR M06/M11 A3009 RMK AO2 SLP205
     T10561111=
KOSH 211653Z 27008KT 8SM CLR M06/M11 A3009 RMK AO2 SLP205
     T10561111=
KOVS 211653Z AUTO 27006KT 10SM CLR M05/M12 A3018 RMK AO2
     SLP230 T10501122=
KOVS 211653Z AUTO 27006KT 10SM CLR M05/M12 A3018 RMK AO2
     SLP230 T10501122=
KPBH 211735Z AUTO 23005KT 4SM -SN OVC017 M08/M11 A3002 RMK
     AO2 T10841106=
KPBH 211735Z AUTO 23005KT 4SM -SN OVC017 M08/M11 A3002 RMK
     AO2 T10841106=
KPBH 211715Z AUTO 22007KT 5SM -SN OVC013 M09/M11 A3002 RMK
     AO2 T10861108=
KPBH 211715Z AUTO 22007KT 5SM -SN OVC013 M09/M11 A3002 RMK
     AO2 T10861108=
KPBH 211655Z AUTO 22008KT 5SM -SN OVC011 M09/M11 A3001 RMK
     AO2 T10871110=
KPBH 211655Z AUTO 22008KT 5SM -SN OVC011 M09/M11 A3001 RMK
     AO2 T10871110=
KPCZ 211715Z AUTO 25008KT 10SM CLR M03/M11 A3009 RMK AO2
     T10351106=
KPCZ 211715Z AUTO 25008KT 10SM CLR M03/M11 A3009 RMK AO2
     T10351106=
KPCZ 211655Z AUTO 25010KT 10SM CLR M04/M11 A3009 RMK AO2
     T10401108=
KPCZ 211655Z AUTO 25010KT 10SM CLR M04/M11 A3009 RMK AO2
     T10401108=
KPDC 211715Z AUTO 23008KT 10SM CLR M07/M13 A3021 RMK AO2
     T10681132=
KPDC 211715Z AUTO 23008KT 10SM CLR M07/M13 A3021 RMK AO2
     T10681132=
KPDC 211655Z AUTO 27005KT 10SM CLR M07/M13 A3019 RMK AO2
     T10661131=
KPDC 211655Z AUTO 27005KT 10SM CLR M07/M13 A3019 RMK AO2
     T10661131=
KRAC 211653Z AUTO 26010G23KT 10SM CLR M03/M10 A3017 RMK AO2
     SLP223 T10331100=
KRCX 211715Z AUTO 23005KT 3SM -SN OVC016 M07/M10 A3008 RMK
     AO2 T10731105=
KRCX 211715Z AUTO 23005KT 3SM -SN OVC016 M07/M10 A3008 RMK
     AO2 T10731105=
KRCX 211655Z AUTO 23006KT 3SM -SN OVC016 M08/M11 A3007 RMK
     AO2 T10771108=
KRCX 211655Z AUTO 23006KT 3SM -SN OVC016 M08/M11 A3007 RMK
     AO2 T10771108=
KRHI 211653Z AUTO 26011KT 7SM BKN016 M04/M09 A2999 RMK AO2
     SNE02 SLP179 P0000 T10441094 $=
KRHI 211653Z AUTO 26011KT 7SM BKN016 M04/M09 A2999 RMK AO2
     SNE02 SLP179 P0000 T10441094 $=
KRNH 211715Z AUTO 24007KT 7SM OVC011 M08/M12 A3012 RMK AO2
     T10781118=
KRNH 211715Z AUTO 24007KT 7SM OVC011 M08/M12 A3012 RMK AO2
     T10781118=
KRNH 211655Z AUTO 24007KT 7SM OVC011 M08/M12 A3011 RMK AO2
     T10831124=
KRNH 211655Z AUTO 24007KT 7SM OVC011 M08/M12 A3011 RMK AO2
     T10831124=
KRPD 211735Z AUTO 22007KT 7SM -SN OVC019 M08/M14 A3011 RMK
     AO2 T10801143=
KRPD 211735Z AUTO 22007KT 7SM -SN OVC019 M08/M14 A3011 RMK
     AO2 T10801143=
KRPD 211715Z AUTO 21006KT 5SM -SN OVC015 M08/M14 A3010 RMK
     AO2 T10811143=
KRPD 211715Z AUTO 21006KT 5SM -SN OVC015 M08/M14 A3010 RMK
     AO2 T10811143=
KRPD 211655Z AUTO 22005KT 5SM -SN OVC013 M08/M14 A3009 RMK
     AO2 T10841144=
KRPD 211655Z AUTO 22005KT 5SM -SN OVC013 M08/M14 A3009 RMK
     AO2 T10841144=
KRRL 211735Z AUTO 26005KT 10SM BKN029 M05/M11 A3005 RMK AO2
     T10461106 TSNO=
KRRL 211715Z AUTO 26009KT 10SM OVC029 M05/M11 A3004 RMK AO2
     T10541109 TSNO=
KRRL 211715Z AUTO 26009KT 10SM OVC029 M05/M11 A3004 RMK AO2
     T10541109 TSNO=
KRRL 211655Z AUTO 26007KT 10SM BKN031 M06/M11 A3003 RMK AO2
     T10651115 TSNO=
KRRL 211655Z AUTO 26007KT 10SM BKN031 M06/M11 A3003 RMK AO2
     T10651115 TSNO=
KRYV 211715Z AUTO 22009KT 10SM CLR M04/M10 A3014 RMK AO2
     T10421105=
KRYV 211715Z AUTO 22009KT 10SM CLR M04/M10 A3014 RMK AO2
     T10421105=
KRYV 211655Z AUTO 22009KT 10SM CLR M04/M10 A3014 RMK AO2
     T10421104=
KRYV 211655Z AUTO 22009KT 10SM CLR M04/M10 A3014 RMK AO2
     T10421104=
KRZN 211715Z AUTO 24006KT 7SM OVC010 M06/M09 A3009 RMK AO2
     T10651095=
KRZN 211715Z AUTO 24006KT 7SM OVC010 M06/M09 A3009 RMK AO2
     T10651095=
KRZN 211655Z AUTO 25009KT 7SM OVC010 M07/M09 A3009 RMK AO2
     T10671095=
KRZN 211655Z AUTO 25009KT 7SM OVC010 M07/M09 A3009 RMK AO2
     T10671095=
KSBM 211653Z AUTO 25011KT 10SM CLR M06/M11 A3009 RMK AO2
     SLP199 T10561106=
KSBM 211653Z AUTO 25011KT 10SM CLR M06/M11 A3009 RMK AO2
     SLP199 T10561106=
KSTE 211715Z AUTO 26009G16KT 10SM CLR M08/M13 A3010 RMK AO2
     T10811130=
KSTE 211715Z AUTO 26009G16KT 10SM CLR M08/M13 A3010 RMK AO2
     T10811130=
KSTE 211655Z AUTO 25009KT 3SM HZ SCT002 M08/M13 A3009 RMK
     AO2 T10821127=
KSTE 211655Z AUTO 25009KT 3SM HZ SCT002 M08/M13 A3009 RMK
     AO2 T10821127=
KSUE 211656Z AUTO 26012KT 9SM CLR M04/M09 A3001 RMK AO2
     SLP187 T10391094 FZRANO=
KSUE 211656Z AUTO 26012KT 9SM CLR M04/M09 A3001 RMK AO2
     SLP187 T10391094 FZRANO=
KSUW 211735Z AUTO 31005KT 10SM CLR M03/M08 A3006 RMK AO2
     T10311085=
KSUW 211735Z AUTO 31005KT 10SM CLR M03/M08 A3006 RMK AO2
     T10311085=
KSUW 211715Z AUTO 26007KT 10SM CLR M04/M09 A3005 RMK AO2
     T10361087=
KSUW 211715Z AUTO 26007KT 10SM CLR M04/M09 A3005 RMK AO2
     T10361087=
KSUW 211655Z AUTO 24007KT 10SM SCT055 M04/M09 A3004 RMK AO2
     T10441088=
KSUW 211655Z AUTO 24007KT 10SM SCT055 M04/M09 A3004 RMK AO2
     T10441088=
KTKV 211715Z AUTO 27006KT 7SM BKN017 M06/M11 A3003 RMK AO2
     T10621107=
KTKV 211715Z AUTO 27006KT 7SM BKN017 M06/M11 A3003 RMK AO2
     T10621107=
KTKV 211655Z AUTO 28008KT 7SM SCT017 BKN027 OVC032 M06/M11
     A3002 RMK AO2 T10651107=
KTKV 211655Z AUTO 28008KT 7SM SCT017 BKN027 OVC032 M06/M11
     A3002 RMK AO2 T10651107=
KUES 211645Z 27012KT 10SM SKC M04/M11 A3014=
KUES 211645Z 27012KT 10SM SKC M04/M11 A3014=
KUNU 211735Z AUTO 21010KT 10SM CLR M06/M11 A3014 RMK AO2
     T10601111 TSNO=
KUNU 211735Z AUTO 21010KT 10SM CLR M06/M11 A3014 RMK AO2
     T10601111 TSNO=
KUNU 211715Z AUTO 22010KT 10SM CLR M06/M11 A3013 RMK AO2
     T10611110 TSNO=
KUNU 211715Z AUTO 22010KT 10SM CLR M06/M11 A3013 RMK AO2
     T10611110 TSNO=
KUNU 211655Z AUTO 22009KT 10SM CLR M06/M11 A3012 RMK AO2
     T10651112 TSNO=
KUNU 211655Z AUTO 22009KT 10SM CLR M06/M11 A3012 RMK AO2
     T10651112 TSNO=
KVOK 211656Z 28009KT 10SM CLR M07/M12 A3012 RMK AO2A SLP218=
KVOK 211656Z 28009KT 10SM CLR M07/M12 A3012 RMK AO2A SLP218=
METAR KVOK 211656Z 28009KT 10SM CLR M07/M12 A3012 RMK AO2A
     SLP218=
METAR KVOK 211656Z 28009KT 10SM CLR M07/M12 A3012 RMK AO2A
     SLP218=
KVOK 211656Z 28009KT 10SM CLR M07/M12 A3012 RMK AO2A SLP218=
KY50 211656Z AUTO 26009KT 10SM CLR M03/M11 A3010 RMK AO2
     SLP223 T10281106 FZRANO $=
KY50 211656Z AUTO 26009KT 10SM CLR M03/M11 A3010 RMK AO2
     SLP223 T10281106 FZRANO $=
KY51 211715Z AUTO 30006KT 10SM CLR M07/M11 A3012 RMK AO1
     T10661115=
KY51 211715Z AUTO 30006KT 10SM CLR M07/M11 A3012 RMK AO1
     T10661115=
KY51 211655Z AUTO 30006KT 10SM CLR M07/M12 A3011 RMK AO1
     T10691116=
KY51 211655Z AUTO 30006KT 10SM CLR M07/M12 A3011 RMK AO1
     T10691116=
KY23 211715Z AUTO 22005KT 5SM -SN OVC015 M08/M11 A3010 RMK
     AO2 T10821115=
KY23 211715Z AUTO 22005KT 5SM -SN OVC015 M08/M11 A3010 RMK
     AO2 T10821115=
KY23 211655Z AUTO 23005KT 4SM -SN OVC013 M08/M12 A3010 RMK
     AO2 T10851116=
KY23 211655Z AUTO 23005KT 4SM -SN OVC013 M08/M12 A3010 RMK
     AO2 T10851116=
K3D2 211715Z AUTO 23008KT 10SM CLR M04/M08 A3001 RMK AO2
     T10361085=
K3D2 211715Z AUTO 23008KT 10SM CLR M04/M08 A3001 RMK AO2
     T10361085=
K3D2 211655Z AUTO 26008KT 10SM CLR M04/M09 A3000 RMK AO2
     T10421089=
K3D2 211655Z AUTO 26008KT 10SM CLR M04/M09 A3000 RMK AO2
     T10421089=
K82C 211715Z AUTO 30010KT 7SM CLR M06/M11 A3012 RMK AO2
     T10611111=
K82C 211715Z AUTO 30010KT 7SM CLR M06/M11 A3012 RMK AO2
     T10611111=
K82C 211655Z AUTO 30009KT 10SM CLR M06/M12 A3011 RMK AO2
     T10601116=
K82C 211655Z AUTO 30009KT 10SM CLR M06/M12 A3011 RMK AO2
     T10601116=
KOCQ 211715Z AUTO 26009KT 10SM CLR M03/M09 A3005 RMK AO1
     T10331095=
KOCQ 211715Z AUTO 26009KT 10SM CLR M03/M09 A3005 RMK AO1
     T10331095=
KOCQ 211655Z AUTO 26010G14KT 10SM CLR M04/M09 A3004 RMK AO1
     T10361095=
KOCQ 211655Z AUTO 26010G14KT 10SM CLR M04/M09 A3004 RMK AO1
     T10361095=
KC35 211715Z AUTO 28010KT 10SM CLR M06/M12 A3013 RMK AO2
     T10591120=
KC35 211715Z AUTO 28010KT 10SM CLR M06/M12 A3013 RMK AO2
     T10591120=
KC35 211655Z AUTO 27010G16KT 10SM CLR M06/M12 A3012 RMK AO2
     T10621123=
KC35 211655Z AUTO 27010G16KT 10SM CLR M06/M12 A3012 RMK AO2
     T10621123=
KOLG 211715Z AUTO 29003KT 10SM OVC014 M05/M08 A3004 RMK AO1=
KOLG 211715Z AUTO 29003KT 10SM OVC014 M05/M08 A3004 RMK AO1=
KOLG 211655Z AUTO 25003KT 10SM OVC012 M05/M08 A3003 RMK AO1=
KOLG 211655Z AUTO 25003KT 10SM OVC012 M05/M08 A3003 RMK AO1=
K2P2 211715Z AUTO 24011G15KT 7SM SCT041 M04/M07 A3001 RMK
     AO2 T10391072=
K2P2 211715Z AUTO 24011G15KT 7SM SCT041 M04/M07 A3001 RMK
     AO2 T10391072=
K2P2 211655Z AUTO 24009KT 7SM SCT041 M04/M07 A3000 RMK AO2
     T10411073=
K2P2 211655Z AUTO 24009KT 7SM SCT041 M04/M07 A3000 RMK AO2
     T10411073=
KDBQ 211653Z 24010KT 7SM CLR M08/M12 A3018 RMK AO2 SLP238
     T10781117=
KDBQ 211653Z 24010KT 7SM CLR M08/M12 A3018 RMK AO2 SLP238
     T10781117=
KRST 211654Z 26007KT 10SM CLR M12/M14 A3012 RMK AO2 SLP228
     T11171144=
KRST 211654Z 26007KT 10SM CLR M12/M14 A3012 RMK AO2 SLP228
     T11171144=
KMSP 211653Z 25006KT 8SM -SN OVC009 M11/M13 A3014 RMK AO2
     SNB52 SLP225 P0000 T11111133=
KMSP 211653Z 25006KT 8SM -SN OVC009 M11/M13 A3014 RMK AO2
     SNB52 SLP225 P0000 T11111133=
KRFD 211654Z 27013KT 10SM FEW250 M03/M10 A3021 RMK AO2
     SLP239 T10331100=
KRFD 211654Z 27013KT 10SM FEW250 M03/M10 A3021 RMK AO2
     SLP239 T10331100=
KORD 211651Z 26014KT 10SM SCT250 M01/M09 A3018 RMK AO2
     SLP226 T10111089=
KORD 211651Z 26014KT 10SM SCT250 M01/M09 A3018 RMK AO2
     SLP226 T10111089=